San Antonio, Texas
Traffic Map
Current Weather Conditions
San Antonio, Texas
Scattered Clouds
Scattered Clouds
29°
Feels Like: 32°
Wind Chill: 29° Ceiling: Unl
Heat Index: 32° Visibility: 10mi
Dew Point: 22° Wind: 6mph
Humidity: 66% Direction: 100° (E)
Pressure: 29.94in Gusts: 0mph
Raw Report DataKSKF 281508Z AUTO 10005KT 10SM SCT018 29/22 A2994 RMK AO2 $
Traffic Incident Summary
Active as of:
Severity:
Category:
InformationThere was an issue retrieving the traffic information for this location. Please try a different location or try again shortly.
Advertisements
Track Severe Weather on mobile